Mackinaw City, MI

2:52 PM EST on December 22, 2014 (GMT -0500)
KMIMACKI2 | Change Station
CLOSE
Current Station
Personal Weather Station
Location: Mackinac Island, MI
Elevation: 594 ft
Nearby Weather Stations

Elev 594 ft 45.85 °N, 84.62 °W | Updated 12 minutes ago

Partly Cloudy
Partly Cloudy
36.0 °F
Feels Like 33 °F
N
4.0
Wind Variable Wind from SE

Today
High -- | Low -- °F
--% Chance of Precip.
Yesterday
High -- | Low -- °F
Precip. -- in
8:17 AM 4:57 PM
New Moon, 1% visible
Pressure 29.96 in
Visibility 10.0 miles
Clouds Clear
Windchill 33 °F
Dew Point 30 °F
Humidity 80%
Rainfall 0.00 in
Snow Depth Not available.
UV 1 out of 12
Pollen .10 out of 12
Air Quality Not available.
Flu Activity Not available.
METAR KMCD 221936Z AUTO 11007KT 10SM CLR 02/M03 A2996 RMK AO2 T00171026

More Conditions Fewer Conditions

Pressure 29.96 in
Visibility 10.0 miles
Clouds Clear
Windchill 33 °F
Dew Point 30 °F
Humidity 80%
Rainfall 0.00 in
Snow Depth Not available.
UV 1 out of 12
Pollen .10 out of 12
Air Quality Not available.
Flu Activity Not available.
METAR KMCD 221936Z AUTO 11007KT 10SM CLR 02/M03 A2996 RMK AO2 T00171026

More Conditions Fewer Conditions

Nowcast | as of 2:00 PM EST on December 22, 2014

At 3 PM...partly cloudy. Temperature 34. East winds 8 mph. At 5 PM...partly cloudy. Temperature 34. East winds 8 mph. At 7 PM...mostly cloudy. Temperature 32. East winds 9 mph. At 9 PM...mostly cloudy. Temperature 33. East winds 9 mph.

×

10-Day Weather Forecast

Almanac

Astronomy

Dec. 22, 2014 Rise Set
Actual Time
Civil Twilight
Nautical Twilight
Astronomical Twilight
Moon
Length of Visible Light
Length of Day
Tomorrow will be .
, % of the Moon is Illuminated

Today's Extremes

State Highs State Lows

Community

WunderPhotos

Upload Photos

1,779,699 photos uploaded!

WunderBlogs® & News

Nearby

Air Quality

  Air Quality AQ Index Pollutant
Not available.

Snow Depth

Station Depth Elevation

Earthquake Activity

City Distance Mag. Time & Date
Minimum magnitude displayed is 2.5.

Coastal Water Temperatures

Place Temperature

Nearby Weather Stations